sensor_id;sensor_type;location;lat;lon;timestamp;pressure;altitude;pressure_sealevel;temperature;humidity
18323;BME280;9287;49.456;11.064;2022-12-29T00:01:44;97799.22;;;7.29;94.54
18323;BME280;9287;49.456;11.064;2022-12-29T00:04:13;97800.19;;;7.13;95.78
18323;BME280;9287;49.456;11.064;2022-12-29T00:06:42;97801.25;;;7.20;95.03
18323;BME280;9287;49.456;11.064;2022-12-29T00:09:11;97794.38;;;7.35;93.90
18323;BME280;9287;49.456;11.064;2022-12-29T00:11:39;97786.53;;;7.21;94.91
18323;BME280;9287;49.456;11.064;2022-12-29T00:14:09;97787.56;;;7.29;94.62
18323;BME280;9287;49.456;11.064;2022-12-29T00:16:54;97785.97;;;7.28;94.42
18323;BME280;9287;49.456;11.064;2022-12-29T00:19:22;97781.25;;;7.25;94.73
18323;BME280;9287;49.456;11.064;2022-12-29T00:22:09;97775.00;;;7.24;94.64
18323;BME280;9287;49.456;11.064;2022-12-29T00:24:55;97784.41;;;7.27;94.79
18323;BME280;9287;49.456;11.064;2022-12-29T00:27:40;97777.97;;;7.31;94.51
18323;BME280;9287;49.456;11.064;2022-12-29T00:30:35;97781.00;;;7.30;94.73
18323;BME280;9287;49.456;11.064;2022-12-29T00:33:21;97772.19;;;7.33;94.07
18323;BME280;9287;49.456;11.064;2022-12-29T00:36:13;97779.88;;;7.31;94.49
18323;BME280;9287;49.456;11.064;2022-12-29T00:38:46;97772.00;;;7.38;94.08
18323;BME280;9287;49.456;11.064;2022-12-29T00:41:33;97775.38;;;7.35;94.04
18323;BME280;9287;49.456;11.064;2022-12-29T00:44:18;97771.53;;;7.36;94.11
18323;BME280;9287;49.456;11.064;2022-12-29T00:46:47;97766.09;;;7.48;93.05
18323;BME280;9287;49.456;11.064;2022-12-29T00:49:15;97766.34;;;7.43;93.22
18323;BME280;9287;49.456;11.064;2022-12-29T00:51:59;97761.72;;;7.44;93.43
18323;BME280;9287;49.456;11.064;2022-12-29T00:54:28;97768.81;;;7.48;93.84
18323;BME280;9287;49.456;11.064;2022-12-29T00:56:56;97762.91;;;7.34;94.95
18323;BME280;9287;49.456;11.064;2022-12-29T00:59:24;97762.38;;;7.41;94.21
18323;BME280;9287;49.456;11.064;2022-12-29T01:01:54;97762.59;;;7.48;93.52
18323;BME280;9287;49.456;11.064;2022-12-29T01:04:24;97762.59;;;7.48;94.15
18323;BME280;9287;49.456;11.064;2022-12-29T01:06:53;97765.91;;;7.53;93.59
18323;BME280;9287;49.456;11.064;2022-12-29T01:09:20;97762.19;;;7.58;93.54
18323;BME280;9287;49.456;11.064;2022-12-29T01:12:07;97765.22;;;7.56;93.61
18323;BME280;9287;49.456;11.064;2022-12-29T01:14:35;97774.41;;;7.64;93.22
18323;BME280;9287;49.456;11.064;2022-12-29T01:17:04;97763.06;;;7.62;93.20
18323;BME280;9287;49.456;11.064;2022-12-29T01:19:32;97763.88;;;7.62;93.27
18323;BME280;9287;49.456;11.064;2022-12-29T01:22:00;97753.25;;;7.69;92.83
18323;BME280;9287;49.456;11.064;2022-12-29T01:24:28;97743.03;;;7.66;93.21
18323;BME280;9287;49.456;11.064;2022-12-29T01:26:56;97741.44;;;7.65;93.30
18323;BME280;9287;49.456;11.064;2022-12-29T01:29:23;97743.03;;;7.66;93.27
18323;BME280;9287;49.456;11.064;2022-12-29T01:31:51;97736.13;;;7.81;92.27
18323;BME280;9287;49.456;11.064;2022-12-29T01:34:20;97726.97;;;7.74;92.59
18323;BME280;9287;49.456;11.064;2022-12-29T01:36:48;97729.34;;;7.75;92.73
18323;BME280;9287;49.456;11.064;2022-12-29T01:39:16;97716.78;;;7.71;93.25
18323;BME280;9287;49.456;11.064;2022-12-29T01:41:43;97724.47;;;7.68;93.62
18323;BME280;9287;49.456;11.064;2022-12-29T01:44:50;97720.63;;;7.82;92.38
18323;BME280;9287;49.456;11.064;2022-12-29T01:47:25;97711.81;;;7.73;92.88
18323;BME280;9287;49.456;11.064;2022-12-29T01:49:59;97720.88;;;7.77;92.97
18323;BME280;9287;49.456;11.064;2022-12-29T01:52:30;97717.09;;;7.81;92.77
18323;BME280;9287;49.456;11.064;2022-12-29T01:55:03;97722.22;;;7.95;91.41
18323;BME280;9287;49.456;11.064;2022-12-29T01:57:35;97707.03;;;7.82;92.48
18323;BME280;9287;49.456;11.064;2022-12-29T02:00:07;97713.16;;;7.79;92.91
18323;BME280;9287;49.456;11.064;2022-12-29T02:02:36;97709.75;;;7.82;92.60
18323;BME280;9287;49.456;11.064;2022-12-29T02:05:10;97703.44;;;7.78;93.22
18323;BME280;9287;49.456;11.064;2022-12-29T02:07:39;97708.63;;;7.83;92.94
18323;BME280;9287;49.456;11.064;2022-12-29T02:10:08;97696.16;;;7.82;92.95
18323;BME280;9287;49.456;11.064;2022-12-29T02:12:36;97696.84;;;7.91;92.33
18323;BME280;9287;49.456;11.064;2022-12-29T02:15:05;97699.69;;;7.94;92.16
18323;BME280;9287;49.456;11.064;2022-12-29T02:17:45;97700.56;;;7.98;91.87
18323;BME280;9287;49.456;11.064;2022-12-29T02:20:41;97690.94;;;7.89;92.94
18323;BME280;9287;49.456;11.064;2022-12-29T02:23:29;97698.09;;;7.93;92.75
18323;BME280;9287;49.456;11.064;2022-12-29T02:26:14;97695.13;;;7.98;92.05
18323;BME280;9287;49.456;11.064;2022-12-29T02:32:01;97698.88;;;7.94;92.97
18323;BME280;9287;49.456;11.064;2022-12-29T02:34:37;97684.16;;;7.95;93.12
18323;BME280;9287;49.456;11.064;2022-12-29T02:37:17;97698.19;;;8.09;91.55
18323;BME280;9287;49.456;11.064;2022-12-29T02:39:50;97693.19;;;8.11;91.31
18323;BME280;9287;49.456;11.064;2022-12-29T02:42:25;97700.22;;;8.12;91.41
18323;BME280;9287;49.456;11.064;2022-12-29T02:45:03;97686.84;;;8.07;91.30
18323;BME280;9287;49.456;11.064;2022-12-29T02:47:37;97693.88;;;8.08;91.61
18323;BME280;9287;49.456;11.064;2022-12-29T02:50:13;97689.13;;;8.05;91.81
18323;BME280;9287;49.456;11.064;2022-12-29T02:52:46;97686.63;;;8.00;93.15
18323;BME280;9287;49.456;11.064;2022-12-29T02:55:15;97684.78;;;8.16;90.96
18323;BME280;9287;49.456;11.064;2022-12-29T02:57:42;97680.94;;;8.17;90.77
18323;BME280;9287;49.456;11.064;2022-12-29T03:00:12;97681.97;;;8.00;92.42
18323;BME280;9287;49.456;11.064;2022-12-29T03:03:00;97687.28;;;7.97;92.95
18323;BME280;9287;49.456;11.064;2022-12-29T03:05:45;97679.81;;;8.06;92.09
18323;BME280;9287;49.456;11.064;2022-12-29T03:08:24;97672.22;;;7.99;92.65
18323;BME280;9287;49.456;11.064;2022-12-29T03:10:59;97679.81;;;8.06;91.83
18323;BME280;9287;49.456;11.064;2022-12-29T03:13:34;97668.72;;;7.99;92.30
18323;BME280;9287;49.456;11.064;2022-12-29T03:16:23;97673.59;;;8.06;91.68
18323;BME280;9287;49.456;11.064;2022-12-29T03:18:58;97676.28;;;8.18;91.05
18323;BME280;9287;49.456;11.064;2022-12-29T03:21:32;97673.44;;;8.14;91.10
18323;BME280;9287;49.456;11.064;2022-12-29T03:24:22;97673.03;;;8.12;91.22
18323;BME280;9287;49.456;11.064;2022-12-29T03:26:53;97670.31;;;8.12;91.19
18323;BME280;9287;49.456;11.064;2022-12-29T03:29:22;97662.16;;;8.12;91.52
18323;BME280;9287;49.456;11.064;2022-12-29T03:31:52;97671.00;;;8.09;91.52
18323;BME280;9287;49.456;11.064;2022-12-29T03:34:24;97665.09;;;8.07;91.45
18323;BME280;9287;49.456;11.064;2022-12-29T03:36:55;97665.31;;;8.02;91.58
18323;BME280;9287;49.456;11.064;2022-12-29T03:39:26;97662.41;;;7.95;92.56
18323;BME280;9287;49.456;11.064;2022-12-29T03:41:58;97662.59;;;8.02;92.05
18323;BME280;9287;49.456;11.064;2022-12-29T03:44:32;97658.06;;;8.06;91.50
18323;BME280;9287;49.456;11.064;2022-12-29T03:47:00;97657.16;;;8.02;91.94
18323;BME280;9287;49.456;11.064;2022-12-29T03:49:29;97650.38;;;8.08;91.47
18323;BME280;9287;49.456;11.064;2022-12-29T03:51:57;97657.16;;;8.02;91.64
18323;BME280;9287;49.456;11.064;2022-12-29T03:54:25;97644.94;;;8.08;90.65
18323;BME280;9287;49.456;11.064;2022-12-29T03:56:52;97657.16;;;8.02;90.94
18323;BME280;9287;49.456;11.064;2022-12-29T03:59:20;97651.69;;;8.14;89.53
18323;BME280;9287;49.456;11.064;2022-12-29T04:01:48;97650.94;;;8.01;91.00
18323;BME280;9287;49.456;11.064;2022-12-29T04:04:16;97654.69;;;7.97;90.91
18323;BME280;9287;49.456;11.064;2022-12-29T04:06:45;97654.00;;;8.00;90.90
18323;BME280;9287;49.456;11.064;2022-12-29T04:09:13;97656.66;;;8.24;88.54
18323;BME280;9287;49.456;11.064;2022-12-29T04:11:43;97663.72;;;8.13;88.98
18323;BME280;9287;49.456;11.064;2022-12-29T04:14:10;97653.72;;;8.17;88.23
18323;BME280;9287;49.456;11.064;2022-12-29T04:16:38;97650.56;;;8.15;88.14
18323;BME280;9287;49.456;11.064;2022-12-29T04:19:06;97652.84;;;8.13;88.05
18323;BME280;9287;49.456;11.064;2022-12-29T04:21:34;97665.28;;;8.14;87.67
18323;BME280;9287;49.456;11.064;2022-12-29T04:24:04;97659.66;;;8.07;88.17
18323;BME280;9287;49.456;11.064;2022-12-29T04:26:32;97665.78;;;8.04;88.25
18323;BME280;9287;49.456;11.064;2022-12-29T04:29:00;97658.06;;;8.06;87.91
18323;BME280;9287;49.456;11.064;2022-12-29T04:31:28;97662.41;;;7.95;88.76
18323;BME280;9287;49.456;11.064;2022-12-29T04:33:56;97663.06;;;8.04;87.73
18323;BME280;9287;49.456;11.064;2022-12-29T04:36:24;97664.88;;;8.00;88.06
18323;BME280;9287;49.456;11.064;2022-12-29T04:38:55;97666.00;;;8.11;87.35
18323;BME280;9287;49.456;11.064;2022-12-29T04:41:25;97666.34;;;8.10;86.70
18323;BME280;9287;49.456;11.064;2022-12-29T04:43:52;97666.69;;;8.08;87.26
18323;BME280;9287;49.456;11.064;2022-12-29T04:46:20;97664.88;;;8.00;87.53
18323;BME280;9287;49.456;11.064;2022-12-29T04:48:48;97657.84;;;7.99;87.67
18323;BME280;9287;49.456;11.064;2022-12-29T04:51:15;97648.97;;;8.14;86.21
18323;BME280;9287;49.456;11.064;2022-12-29T04:53:43;97656.00;;;8.15;86.01
18323;BME280;9287;49.456;11.064;2022-12-29T04:56:11;97647.19;;;8.06;86.36
18323;BME280;9287;49.456;11.064;2022-12-29T04:58:40;97651.34;;;8.16;85.59
18323;BME280;9287;49.456;11.064;2022-12-29T05:01:08;97648.00;;;8.07;85.82
18323;BME280;9287;49.456;11.064;2022-12-29T05:03:36;97651.03;;;8.05;85.79
18323;BME280;9287;49.456;11.064;2022-12-29T05:06:04;97650.81;;;7.98;86.23
18323;BME280;9287;49.456;11.064;2022-12-29T05:08:31;97646.53;;;7.85;87.72
18323;BME280;9287;49.456;11.064;2022-12-29T05:10:59;97647.22;;;7.82;87.88
18323;BME280;9287;49.456;11.064;2022-12-29T05:13:27;97655.16;;;7.87;88.20
18323;BME280;9287;49.456;11.064;2022-12-29T05:15:56;97658.56;;;7.84;88.10
18323;BME280;9287;49.456;11.064;2022-12-29T05:18:24;97665.78;;;8.04;86.76
18323;BME280;9287;49.456;11.064;2022-12-29T05:20:51;97669.44;;;7.96;87.53
18323;BME280;9287;49.456;11.064;2022-12-29T05:23:19;97666.34;;;7.97;87.75
18323;BME280;9287;49.456;11.064;2022-12-29T05:25:47;97656.38;;;8.01;87.51
18323;BME280;9287;49.456;11.064;2022-12-29T05:28:14;97659.44;;;8.00;87.42
18323;BME280;9287;49.456;11.064;2022-12-29T05:30:44;97659.09;;;8.14;86.73
18323;BME280;9287;49.456;11.064;2022-12-29T05:33:13;97672.31;;;8.15;86.32
18323;BME280;9287;49.456;11.064;2022-12-29T05:35:40;97649.06;;;8.18;86.31
18323;BME280;9287;49.456;11.064;2022-12-29T05:38:08;97658.06;;;8.06;86.98
18323;BME280;9287;49.456;11.064;2022-12-29T05:40:36;97657.16;;;8.02;86.92
18323;BME280;9287;49.456;11.064;2022-12-29T05:43:03;97646.97;;;7.99;87.68
18323;BME280;9287;49.456;11.064;2022-12-29T05:45:31;97642.81;;;7.89;88.25
18323;BME280;9287;49.456;11.064;2022-12-29T05:47:59;97636.28;;;7.78;89.54
18323;BME280;9287;49.456;11.064;2022-12-29T05:50:28;97640.91;;;7.78;89.64
18323;BME280;9287;49.456;11.064;2022-12-29T05:52:56;97647.94;;;7.79;90.08
18323;BME280;9287;49.456;11.064;2022-12-29T05:55:24;97650.09;;;7.73;90.75
18323;BME280;9287;49.456;11.064;2022-12-29T05:57:51;97649.06;;;7.65;91.53
18323;BME280;9287;49.456;11.064;2022-12-29T06:00:19;97659.25;;;7.68;91.10
18323;BME280;9287;49.456;11.064;2022-12-29T06:02:47;97657.47;;;7.60;92.13
18323;BME280;9287;49.456;11.064;2022-12-29T06:05:15;97671.47;;;7.62;92.23
18323;BME280;9287;49.456;11.064;2022-12-29T06:07:44;97658.81;;;7.66;91.49
18323;BME280;9287;49.456;11.064;2022-12-29T06:10:12;97653.16;;;7.72;90.89
18323;BME280;9287;49.456;11.064;2022-12-29T06:12:40;97652.47;;;7.75;90.37
18323;BME280;9287;49.456;11.064;2022-12-29T06:15:08;97653.03;;;7.68;90.82
18323;BME280;9287;49.456;11.064;2022-12-29T06:17:36;97650.66;;;7.66;91.10
18323;BME280;9287;49.456;11.064;2022-12-29T06:20:04;97639.22;;;7.61;91.21
18323;BME280;9287;49.456;11.064;2022-12-29T06:22:33;97648.53;;;7.60;91.53
18323;BME280;9287;49.456;11.064;2022-12-29T06:25:02;97643.63;;;7.65;91.20
18323;BME280;9287;49.456;11.064;2022-12-29T06:27:31;97656.75;;;7.63;90.56
18323;BME280;9287;49.456;11.064;2022-12-29T06:29:59;97654.03;;;7.63;90.69
18323;BME280;9287;49.456;11.064;2022-12-29T06:32:27;97642.75;;;7.61;90.71
18323;BME280;9287;49.456;11.064;2022-12-29T06:34:55;97644.31;;;7.62;89.81
18323;BME280;9287;49.456;11.064;2022-12-29T06:37:22;97657.66;;;7.67;89.39
18323;BME280;9287;49.456;11.064;2022-12-29T06:39:50;97642.84;;;7.65;89.09
18323;BME280;9287;49.456;11.064;2022-12-29T06:42:19;97652.03;;;7.60;89.26
18323;BME280;9287;49.456;11.064;2022-12-29T06:44:47;97652.13;;;7.64;89.08
18323;BME280;9287;49.456;11.064;2022-12-29T06:47:15;97659.06;;;7.61;88.26
18323;BME280;9287;49.456;11.064;2022-12-29T06:49:42;97645.69;;;7.56;88.93
18323;BME280;9287;49.456;11.064;2022-12-29T06:52:10;97652.38;;;7.59;88.07
18323;BME280;9287;49.456;11.064;2022-12-29T06:54:39;97657.66;;;7.67;86.72
18323;BME280;9287;49.456;11.064;2022-12-29T06:57:07;97656.09;;;7.66;86.75
18323;BME280;9287;49.456;11.064;2022-12-29T06:59:36;97658.81;;;7.66;86.82
18323;BME280;9287;49.456;11.064;2022-12-29T07:02:04;97657.00;;;7.71;86.23
18323;BME280;9287;49.456;11.064;2022-12-29T07:04:32;97650.66;;;7.66;86.03
18323;BME280;9287;49.456;11.064;2022-12-29T07:06:59;97662.91;;;7.60;86.58
18323;BME280;9287;49.456;11.064;2022-12-29T07:09:27;97664.69;;;7.68;86.34
18323;BME280;9287;49.456;11.064;2022-12-29T07:11:55;97661.31;;;7.59;87.09
18323;BME280;9287;49.456;11.064;2022-12-29T07:14:23;97679.31;;;7.76;86.01
18323;BME280;9287;49.456;11.064;2022-12-29T07:16:52;97673.97;;;7.92;84.12
18323;BME280;9287;49.456;11.064;2022-12-29T07:19:20;97665.13;;;7.83;84.61
18323;BME280;9287;49.456;11.064;2022-12-29T07:21:48;97677.13;;;7.94;83.23
18323;BME280;9287;49.456;11.064;2022-12-29T07:24:16;97676.91;;;7.87;83.96
18323;BME280;9287;49.456;11.064;2022-12-29T07:26:44;97685.06;;;7.87;83.72
18323;BME280;9287;49.456;11.064;2022-12-29T07:29:11;97685.75;;;7.96;83.53
18323;BME280;9287;49.456;11.064;2022-12-29T07:31:39;97690.81;;;8.10;81.78
18323;BME280;9287;49.456;11.064;2022-12-29T07:34:09;97689.22;;;8.09;81.86
18323;BME280;9287;49.456;11.064;2022-12-29T07:36:37;97700.00;;;8.05;81.09
18323;BME280;9287;49.456;11.064;2022-12-29T07:39:04;97693.19;;;8.11;81.15
18323;BME280;9287;49.456;11.064;2022-12-29T07:41:32;97700.00;;;8.05;81.38
18323;BME280;9287;49.456;11.064;2022-12-29T07:44:01;97688.22;;;8.01;81.31
18323;BME280;9287;49.456;11.064;2022-12-29T07:46:28;97689.34;;;8.00;81.59
18323;BME280;9287;49.456;11.064;2022-12-29T07:49:18;97694.13;;;7.91;82.77
18323;BME280;9287;49.456;11.064;2022-12-29T07:51:46;97698.41;;;8.04;82.18
18323;BME280;9287;49.456;11.064;2022-12-29T07:54:14;97690.94;;;8.01;82.51
18323;BME280;9287;49.456;11.064;2022-12-29T07:56:44;97700.91;;;8.09;82.23
18323;BME280;9287;49.456;11.064;2022-12-29T07:59:12;97687.94;;;8.18;81.61
18323;BME280;9287;49.456;11.064;2022-12-29T08:01:39;97699.28;;;8.20;81.78
18323;BME280;9287;49.456;11.064;2022-12-29T08:04:07;97697.47;;;8.24;81.18
18323;BME280;9287;49.456;11.064;2022-12-29T08:06:37;97671.38;;;8.35;80.67
18323;BME280;9287;49.456;11.064;2022-12-29T08:09:04;97677.94;;;8.47;80.57
18323;BME280;9287;49.456;11.064;2022-12-29T08:11:42;97674.09;;;8.48;79.84
18323;BME280;9287;49.456;11.064;2022-12-29T08:14:10;97681.81;;;8.46;80.97
18323;BME280;9287;49.456;11.064;2022-12-29T08:16:38;97685.84;;;8.52;80.45
18323;BME280;9287;49.456;11.064;2022-12-29T08:19:05;97680.59;;;8.59;80.28
18323;BME280;9287;49.456;11.064;2022-12-29T08:21:33;97687.69;;;8.48;81.57
18323;BME280;9287;49.456;11.064;2022-12-29T08:24:03;97684.47;;;8.58;81.41
18323;BME280;9287;49.456;11.064;2022-12-29T08:26:30;97690.00;;;8.61;80.87
18323;BME280;9287;49.456;11.064;2022-12-29T08:28:58;97688.59;;;8.67;80.55
18323;BME280;9287;49.456;11.064;2022-12-29T08:31:26;97699.16;;;8.69;80.59
18323;BME280;9287;49.456;11.064;2022-12-29T08:33:54;97697.84;;;8.63;81.14
18323;BME280;9287;49.456;11.064;2022-12-29T08:36:21;97681.19;;;8.80;80.34
18323;BME280;9287;49.456;11.064;2022-12-29T08:38:49;97694.38;;;8.78;80.67
18323;BME280;9287;49.456;11.064;2022-12-29T08:41:18;97703.66;;;8.77;80.64
18323;BME280;9287;49.456;11.064;2022-12-29T08:43:46;97700.72;;;8.82;80.90
18323;BME280;9287;49.456;11.064;2022-12-29T08:46:14;97702.16;;;9.07;78.55
18323;BME280;9287;49.456;11.064;2022-12-29T08:48:42;97700.06;;;9.17;78.85
18323;BME280;9287;49.456;11.064;2022-12-29T08:51:09;97709.88;;;9.05;78.65
18323;BME280;9287;49.456;11.064;2022-12-29T08:53:37;97704.34;;;9.02;80.12
18323;BME280;9287;49.456;11.064;2022-12-29T08:56:06;97696.47;;;9.13;79.25
18323;BME280;9287;49.456;11.064;2022-12-29T08:58:35;97698.66;;;9.23;78.39
18323;BME280;9287;49.456;11.064;2022-12-29T09:01:03;97694.44;;;9.10;79.48
18323;BME280;9287;49.456;11.064;2022-12-29T09:03:31;97692.47;;;8.94;80.57
18323;BME280;9287;49.456;11.064;2022-12-29T09:06:19;97688.56;;;9.23;79.17
18323;BME280;9287;49.456;11.064;2022-12-29T09:08:46;97705.69;;;9.24;79.33
18323;BME280;9287;49.456;11.064;2022-12-29T09:11:16;97692.06;;;9.08;81.05
18323;BME280;9287;49.456;11.064;2022-12-29T09:13:46;97692.84;;;9.08;81.64
18323;BME280;9287;49.456;11.064;2022-12-29T09:16:15;97697.16;;;9.10;81.88
18323;BME280;9287;49.456;11.064;2022-12-29T09:18:43;97695.44;;;9.64;79.40
18323;BME280;9287;49.456;11.064;2022-12-29T09:21:12;97690.19;;;9.91;76.57
18323;BME280;9287;49.456;11.064;2022-12-29T09:23:40;97695.25;;;10.08;75.21
18323;BME280;9287;49.456;11.064;2022-12-29T09:26:08;97708.63;;;10.13;75.08
18323;BME280;9287;49.456;11.064;2022-12-29T09:28:36;97715.31;;;10.31;74.87
18323;BME280;9287;49.456;11.064;2022-12-29T09:31:05;97707.13;;;10.51;73.41
18323;BME280;9287;49.456;11.064;2022-12-29T09:33:33;97708.78;;;10.74;72.07
18323;BME280;9287;49.456;11.064;2022-12-29T09:36:02;97708.41;;;10.57;73.04
18323;BME280;9287;49.456;11.064;2022-12-29T09:38:30;97699.88;;;10.58;73.31
18323;BME280;9287;49.456;11.064;2022-12-29T09:41:04;97705.56;;;10.50;74.96
18323;BME280;9287;49.456;11.064;2022-12-29T09:43:52;97702.81;;;10.30;76.00
18323;BME280;9287;49.456;11.064;2022-12-29T09:46:26;97700.34;;;10.25;77.41
18323;BME280;9287;49.456;11.064;2022-12-29T09:49:07;97699.19;;;10.26;77.57
18323;BME280;9287;49.456;11.064;2022-12-29T09:51:38;97688.88;;;10.35;77.74
18323;BME280;9287;49.456;11.064;2022-12-29T09:54:21;97688.00;;;10.31;78.76
18323;BME280;9287;49.456;11.064;2022-12-29T09:56:51;97683.63;;;10.46;78.22
18323;BME280;9287;49.456;11.064;2022-12-29T09:59:21;97684.16;;;10.71;76.92
18323;BME280;9287;49.456;11.064;2022-12-29T10:01:57;97689.47;;;10.64;76.50
18323;BME280;9287;49.456;11.064;2022-12-29T10:04:26;97684.00;;;10.64;77.74
18323;BME280;9287;49.456;11.064;2022-12-29T10:06:57;97684.00;;;10.64;77.61
18323;BME280;9287;49.456;11.064;2022-12-29T10:09:50;97684.78;;;10.64;78.29
18323;BME280;9287;49.456;11.064;2022-12-29T10:12:28;97680.13;;;10.65;78.44
18323;BME280;9287;49.456;11.064;2022-12-29T10:15:03;97684.19;;;10.74;78.72
18323;BME280;9287;49.456;11.064;2022-12-29T10:17:40;97676.41;;;10.73;78.61
18323;BME280;9287;49.456;11.064;2022-12-29T10:20:22;97680.13;;;10.65;79.25
18323;BME280;9287;49.456;11.064;2022-12-29T10:23:22;97675.22;;;10.74;78.95
18323;BME280;9287;49.456;11.064;2022-12-29T10:25:53;97672.38;;;10.67;80.24
18323;BME280;9287;49.456;11.064;2022-12-29T10:28:24;97675.66;;;10.76;79.84
18323;BME280;9287;49.456;11.064;2022-12-29T10:30:59;97662.00;;;10.76;80.12
18323;BME280;9287;49.456;11.064;2022-12-29T10:33:38;97656.84;;;10.71;81.02
18323;BME280;9287;49.456;11.064;2022-12-29T10:36:13;97668.56;;;10.71;80.98
18323;BME280;9287;49.456;11.064;2022-12-29T10:38:48;97649.50;;;10.75;81.14
18323;BME280;9287;49.456;11.064;2022-12-29T10:41:23;97653.22;;;10.86;81.20
18323;BME280;9287;49.456;11.064;2022-12-29T10:43:54;97652.38;;;10.82;80.99
18323;BME280;9287;49.456;11.064;2022-12-29T10:46:27;97641.69;;;10.96;80.00
18323;BME280;9287;49.456;11.064;2022-12-29T10:48:58;97648.75;;;10.97;80.43
18323;BME280;9287;49.456;11.064;2022-12-29T10:51:28;97638.69;;;11.01;80.86
18323;BME280;9287;49.456;11.064;2022-12-29T10:53:59;97627.47;;;11.06;79.83
18323;BME280;9287;49.456;11.064;2022-12-29T10:56:33;97638.06;;;11.11;79.37
18323;BME280;9287;49.456;11.064;2022-12-29T10:59:10;97639.78;;;11.20;79.58
18323;BME280;9287;49.456;11.064;2022-12-29T11:01:49;97643.00;;;11.25;79.06
18323;BME280;9287;49.456;11.064;2022-12-29T11:04:33;97627.50;;;11.33;78.45
18323;BME280;9287;49.456;11.064;2022-12-29T11:07:04;97631.53;;;11.39;78.27
18323;BME280;9287;49.456;11.064;2022-12-29T11:09:39;97630.59;;;11.31;78.72
18323;BME280;9287;49.456;11.064;2022-12-29T11:12:18;97626.94;;;11.46;77.52
18323;BME280;9287;49.456;11.064;2022-12-29T11:14:47;97627.84;;;11.54;76.24
18323;BME280;9287;49.456;11.064;2022-12-29T11:17:16;97618.59;;;11.62;76.05
18323;BME280;9287;49.456;11.064;2022-12-29T11:19:46;97633.66;;;11.75;75.64
18323;BME280;9287;49.456;11.064;2022-12-29T11:22:19;97632.31;;;11.89;74.34
18323;BME280;9287;49.456;11.064;2022-12-29T11:24:51;97636.19;;;11.88;73.80
18323;BME280;9287;49.456;11.064;2022-12-29T11:27:21;97641.13;;;12.05;74.45
18323;BME280;9287;49.456;11.064;2022-12-29T11:29:50;97635.78;;;12.15;72.82
18323;BME280;9287;49.456;11.064;2022-12-29T11:32:20;97640.91;;;12.17;72.67
18323;BME280;9287;49.456;11.064;2022-12-29T11:34:56;97635.34;;;12.10;73.95
18323;BME280;9287;49.456;11.064;2022-12-29T11:37:28;97638.09;;;12.10;74.10
18323;BME280;9287;49.456;11.064;2022-12-29T11:39:58;97647.44;;;12.09;75.80
18323;BME280;9287;49.456;11.064;2022-12-29T11:42:33;97635.84;;;12.19;74.85
18323;BME280;9287;49.456;11.064;2022-12-29T11:45:05;97640.03;;;12.39;73.58
18323;BME280;9287;49.456;11.064;2022-12-29T11:47:36;97630.72;;;12.47;73.19
18323;BME280;9287;49.456;11.064;2022-12-29T11:50:07;97634.56;;;12.73;70.81
18323;BME280;9287;49.456;11.064;2022-12-29T11:52:36;97629.72;;;12.96;69.14
18323;BME280;9287;49.456;11.064;2022-12-29T11:55:13;97632.88;;;13.02;68.22
18323;BME280;9287;49.456;11.064;2022-12-29T11:57:44;97649.91;;;12.81;69.29
18323;BME280;9287;49.456;11.064;2022-12-29T12:00:16;97640.44;;;12.75;70.69
18323;BME280;9287;49.456;11.064;2022-12-29T12:02:52;97623.91;;;12.68;71.32
18323;BME280;9287;49.456;11.064;2022-12-29T12:05:30;97620.84;;;12.73;71.81
18323;BME280;9287;49.456;11.064;2022-12-29T12:08:07;97619.78;;;12.81;71.13
18323;BME280;9287;49.456;11.064;2022-12-29T12:10:46;97625.03;;;13.00;70.16
18323;BME280;9287;49.456;11.064;2022-12-29T12:13:19;97617.31;;;13.09;69.54
18323;BME280;9287;49.456;11.064;2022-12-29T12:15:52;97612.78;;;13.24;68.49
18323;BME280;9287;49.456;11.064;2022-12-29T12:18:33;97611.22;;;13.27;69.48
18323;BME280;9287;49.456;11.064;2022-12-29T12:21:09;97623.81;;;13.35;69.17
18323;BME280;9287;49.456;11.064;2022-12-29T12:23:49;97615.97;;;13.30;68.60
18323;BME280;9287;49.456;11.064;2022-12-29T12:26:23;97607.94;;;13.10;70.65
18323;BME280;9287;49.456;11.064;2022-12-29T12:28:59;97624.91;;;12.86;73.24
18323;BME280;9287;49.456;11.064;2022-12-29T12:31:41;97624.34;;;12.70;74.24
18323;BME280;9287;49.456;11.064;2022-12-29T12:34:16;97623.84;;;12.61;76.76
18323;BME280;9287;49.456;11.064;2022-12-29T12:36:58;97629.94;;;12.47;78.14
18323;BME280;9287;49.456;11.064;2022-12-29T12:39:39;97624.56;;;12.54;78.25
18323;BME280;9287;49.456;11.064;2022-12-29T12:42:23;97617.44;;;12.49;78.63
18323;BME280;9287;49.456;11.064;2022-12-29T12:45:04;97625.34;;;12.54;78.66
18323;BME280;9287;49.456;11.064;2022-12-29T12:47:50;97631.06;;;12.42;79.11
18323;BME280;9287;49.456;11.064;2022-12-29T12:50:31;97629.81;;;12.36;80.45
18323;BME280;9287;49.456;11.064;2022-12-29T12:53:24;97626.53;;;12.24;83.00
18323;BME280;9287;49.456;11.064;2022-12-29T12:56:05;97638.88;;;12.10;83.54
18323;BME280;9287;49.456;11.064;2022-12-29T12:58:42;97619.25;;;12.05;83.93
18323;BME280;9287;49.456;11.064;2022-12-29T13:01:21;97620.81;;;12.06;84.33
18323;BME280;9287;49.456;11.064;2022-12-29T13:04:05;97621.13;;;12.01;85.35
18323;BME280;9287;49.456;11.064;2022-12-29T13:06:41;97623.03;;;11.97;85.56
18323;BME280;9287;49.456;11.064;2022-12-29T13:09:29;97632.03;;;11.97;86.09
18323;BME280;9287;49.456;11.064;2022-12-29T13:12:13;97630.84;;;11.95;86.91
18323;BME280;9287;49.456;11.064;2022-12-29T13:14:51;97629.25;;;11.94;87.68
18323;BME280;9287;49.456;11.064;2022-12-29T13:17:26;97636.31;;;11.95;87.66
18323;BME280;9287;49.456;11.064;2022-12-29T13:20:02;97629.78;;;11.76;90.99
18323;BME280;9287;49.456;11.064;2022-12-29T13:22:39;97632.81;;;11.71;92.36
18323;BME280;9287;49.456;11.064;2022-12-29T13:25:25;97628.50;;;11.70;93.55
18323;BME280;9287;49.456;11.064;2022-12-29T13:27:59;97629.66;;;11.69;94.14
18323;BME280;9287;49.456;11.064;2022-12-29T13:30:32;97637.06;;;11.69;94.82
18323;BME280;9287;49.456;11.064;2022-12-29T13:33:10;97633.41;;;11.61;95.41
18323;BME280;9287;49.456;11.064;2022-12-29T13:35:55;97631.00;;;11.56;95.88
18323;BME280;9287;49.456;11.064;2022-12-29T13:38:27;97641.16;;;11.56;95.72